sensor_id;sensor_type;location;lat;lon;timestamp;P1;durP1;ratioP1;P2;durP2;ratioP2
32824;SDS011;51060;42.640;24.356;2024-01-06T00:01:40;118.93;;;68.73;;
32824;SDS011;51060;42.640;24.356;2024-01-06T00:04:05;115.87;;;64.67;;
32824;SDS011;51060;42.640;24.356;2024-01-06T00:06:31;96.43;;;55.33;;
32824;SDS011;51060;42.640;24.356;2024-01-06T00:08:57;78.97;;;47.00;;
32824;SDS011;51060;42.640;24.356;2024-01-06T00:11:23;90.80;;;51.33;;
32824;SDS011;51060;42.640;24.356;2024-01-06T00:13:48;88.93;;;51.23;;
32824;SDS011;51060;42.640;24.356;2024-01-06T00:16:18;103.40;;;54.67;;
32824;SDS011;51060;42.640;24.356;2024-01-06T00:18:44;94.73;;;52.70;;
32824;SDS011;51060;42.640;24.356;2024-01-06T00:21:13;96.37;;;55.50;;
32824;SDS011;51060;42.640;24.356;2024-01-06T00:23:42;84.40;;;51.13;;
32824;SDS011;51060;42.640;24.356;2024-01-06T00:26:08;93.97;;;52.87;;
32824;SDS011;51060;42.640;24.356;2024-01-06T00:28:35;88.90;;;52.37;;
32824;SDS011;51060;42.640;24.356;2024-01-06T00:31:00;96.40;;;55.77;;
32824;SDS011;51060;42.640;24.356;2024-01-06T00:33:26;96.00;;;55.33;;
32824;SDS011;51060;42.640;24.356;2024-01-06T00:35:51;94.67;;;53.50;;
32824;SDS011;51060;42.640;24.356;2024-01-06T00:38:17;87.13;;;51.90;;
32824;SDS011;51060;42.640;24.356;2024-01-06T00:40:43;88.13;;;52.33;;
32824;SDS011;51060;42.640;24.356;2024-01-06T00:43:08;93.43;;;52.80;;
32824;SDS011;51060;42.640;24.356;2024-01-06T00:45:34;83.87;;;49.60;;
32824;SDS011;51060;42.640;24.356;2024-01-06T00:48:00;85.47;;;50.47;;
32824;SDS011;51060;42.640;24.356;2024-01-06T00:50:25;84.90;;;50.63;;
32824;SDS011;51060;42.640;24.356;2024-01-06T00:52:51;83.50;;;50.13;;
32824;SDS011;51060;42.640;24.356;2024-01-06T00:55:20;83.97;;;49.37;;
32824;SDS011;51060;42.640;24.356;2024-01-06T00:57:45;70.47;;;41.57;;
32824;SDS011;51060;42.640;24.356;2024-01-06T01:00:11;33.00;;;21.00;;
32824;SDS011;51060;42.640;24.356;2024-01-06T01:02:38;37.53;;;24.33;;
32824;SDS011;51060;42.640;24.356;2024-01-06T01:05:03;64.47;;;40.17;;
32824;SDS011;51060;42.640;24.356;2024-01-06T01:07:29;72.10;;;44.10;;
32824;SDS011;51060;42.640;24.356;2024-01-06T01:09:55;74.17;;;47.43;;
32824;SDS011;51060;42.640;24.356;2024-01-06T01:12:22;74.63;;;46.60;;
32824;SDS011;51060;42.640;24.356;2024-01-06T01:14:49;91.87;;;53.53;;
32824;SDS011;51060;42.640;24.356;2024-01-06T01:17:14;71.57;;;43.53;;
32824;SDS011;51060;42.640;24.356;2024-01-06T01:19:40;65.80;;;40.77;;
32824;SDS011;51060;42.640;24.356;2024-01-06T01:22:06;73.27;;;43.73;;
32824;SDS011;51060;42.640;24.356;2024-01-06T01:24:31;70.83;;;42.87;;
32824;SDS011;51060;42.640;24.356;2024-01-06T01:26:57;64.63;;;39.67;;
32824;SDS011;51060;42.640;24.356;2024-01-06T01:29:22;66.67;;;40.20;;
32824;SDS011;51060;42.640;24.356;2024-01-06T01:31:48;71.83;;;42.20;;
32824;SDS011;51060;42.640;24.356;2024-01-06T01:34:14;73.97;;;42.57;;
32824;SDS011;51060;42.640;24.356;2024-01-06T01:36:39;72.00;;;42.17;;
32824;SDS011;51060;42.640;24.356;2024-01-06T01:39:05;69.60;;;39.77;;
32824;SDS011;51060;42.640;24.356;2024-01-06T01:41:31;73.07;;;39.73;;
32824;SDS011;51060;42.640;24.356;2024-01-06T01:43:56;77.93;;;44.57;;
32824;SDS011;51060;42.640;24.356;2024-01-06T01:46:28;77.87;;;41.47;;
32824;SDS011;51060;42.640;24.356;2024-01-06T01:48:55;68.23;;;38.93;;
32824;SDS011;51060;42.640;24.356;2024-01-06T01:51:21;67.47;;;39.20;;
32824;SDS011;51060;42.640;24.356;2024-01-06T01:53:48;68.13;;;38.33;;
32824;SDS011;51060;42.640;24.356;2024-01-06T01:56:15;69.73;;;37.80;;
32824;SDS011;51060;42.640;24.356;2024-01-06T01:58:41;68.43;;;37.53;;
32824;SDS011;51060;42.640;24.356;2024-01-06T02:01:07;51.97;;;31.17;;
32824;SDS011;51060;42.640;24.356;2024-01-06T02:03:33;54.97;;;32.40;;
32824;SDS011;51060;42.640;24.356;2024-01-06T02:05:58;76.57;;;41.90;;
32824;SDS011;51060;42.640;24.356;2024-01-06T02:08:24;77.00;;;42.40;;
32824;SDS011;51060;42.640;24.356;2024-01-06T02:10:49;58.77;;;33.30;;
32824;SDS011;51060;42.640;24.356;2024-01-06T02:13:15;64.90;;;33.93;;
32824;SDS011;51060;42.640;24.356;2024-01-06T02:15:41;71.97;;;41.37;;
32824;SDS011;51060;42.640;24.356;2024-01-06T02:18:06;66.13;;;37.10;;
32824;SDS011;51060;42.640;24.356;2024-01-06T02:20:32;60.00;;;35.30;;
32824;SDS011;51060;42.640;24.356;2024-01-06T02:22:58;68.87;;;40.90;;
32824;SDS011;51060;42.640;24.356;2024-01-06T02:25:25;72.43;;;41.80;;
32824;SDS011;51060;42.640;24.356;2024-01-06T02:27:51;65.03;;;39.73;;
32824;SDS011;51060;42.640;24.356;2024-01-06T02:30:17;67.53;;;40.53;;
32824;SDS011;51060;42.640;24.356;2024-01-06T02:32:42;68.93;;;41.23;;
32824;SDS011;51060;42.640;24.356;2024-01-06T02:35:08;66.80;;;40.83;;
32824;SDS011;51060;42.640;24.356;2024-01-06T02:37:34;37.83;;;22.63;;
32824;SDS011;51060;42.640;24.356;2024-01-06T02:39:59;37.80;;;25.83;;
32824;SDS011;51060;42.640;24.356;2024-01-06T02:42:25;36.67;;;24.30;;
32824;SDS011;51060;42.640;24.356;2024-01-06T02:44:51;41.80;;;27.37;;
32824;SDS011;51060;42.640;24.356;2024-01-06T02:47:16;58.57;;;38.97;;
32824;SDS011;51060;42.640;24.356;2024-01-06T02:49:42;56.97;;;36.37;;
32824;SDS011;51060;42.640;24.356;2024-01-06T02:52:08;56.33;;;37.40;;
32824;SDS011;51060;42.640;24.356;2024-01-06T02:54:33;62.10;;;38.80;;
32824;SDS011;51060;42.640;24.356;2024-01-06T02:56:59;65.90;;;39.30;;
32824;SDS011;51060;42.640;24.356;2024-01-06T02:59:24;62.07;;;37.27;;
32824;SDS011;51060;42.640;24.356;2024-01-06T03:01:50;60.83;;;37.40;;
32824;SDS011;51060;42.640;24.356;2024-01-06T03:04:16;62.80;;;37.57;;
32824;SDS011;51060;42.640;24.356;2024-01-06T03:06:42;59.70;;;35.67;;
32824;SDS011;51060;42.640;24.356;2024-01-06T03:09:07;58.57;;;34.60;;
32824;SDS011;51060;42.640;24.356;2024-01-06T03:11:33;55.97;;;33.27;;
32824;SDS011;51060;42.640;24.356;2024-01-06T03:13:59;43.80;;;27.13;;
32824;SDS011;51060;42.640;24.356;2024-01-06T03:16:24;46.70;;;27.40;;
32824;SDS011;51060;42.640;24.356;2024-01-06T03:18:50;42.10;;;25.60;;
32824;SDS011;51060;42.640;24.356;2024-01-06T03:21:19;42.40;;;24.07;;
32824;SDS011;51060;42.640;24.356;2024-01-06T03:23:45;37.80;;;23.57;;
32824;SDS011;51060;42.640;24.356;2024-01-06T03:26:12;39.80;;;23.93;;
32824;SDS011;51060;42.640;24.356;2024-01-06T03:28:37;38.23;;;24.30;;
32824;SDS011;51060;42.640;24.356;2024-01-06T03:31:03;36.60;;;21.87;;
32824;SDS011;51060;42.640;24.356;2024-01-06T03:33:28;30.23;;;18.40;;
32824;SDS011;51060;42.640;24.356;2024-01-06T03:35:54;32.00;;;19.70;;
32824;SDS011;51060;42.640;24.356;2024-01-06T03:38:20;25.43;;;15.93;;
32824;SDS011;51060;42.640;24.356;2024-01-06T03:40:45;29.57;;;16.97;;
32824;SDS011;51060;42.640;24.356;2024-01-06T03:43:11;26.17;;;17.93;;
32824;SDS011;51060;42.640;24.356;2024-01-06T03:45:36;27.83;;;18.57;;
32824;SDS011;51060;42.640;24.356;2024-01-06T03:48:02;35.30;;;23.00;;
32824;SDS011;51060;42.640;24.356;2024-01-06T03:50:28;38.07;;;26.97;;
32824;SDS011;51060;42.640;24.356;2024-01-06T03:52:53;40.00;;;27.50;;
32824;SDS011;51060;42.640;24.356;2024-01-06T03:55:19;43.13;;;27.40;;
32824;SDS011;51060;42.640;24.356;2024-01-06T03:57:44;44.03;;;27.70;;
32824;SDS011;51060;42.640;24.356;2024-01-06T04:00:10;39.63;;;26.07;;
32824;SDS011;51060;42.640;24.356;2024-01-06T04:02:36;41.67;;;24.80;;
32824;SDS011;51060;42.640;24.356;2024-01-06T04:05:01;39.27;;;25.33;;
32824;SDS011;51060;42.640;24.356;2024-01-06T04:07:27;45.87;;;30.77;;
32824;SDS011;51060;42.640;24.356;2024-01-06T04:09:52;43.17;;;28.93;;
32824;SDS011;51060;42.640;24.356;2024-01-06T04:12:18;47.03;;;30.97;;
32824;SDS011;51060;42.640;24.356;2024-01-06T04:14:44;47.60;;;30.23;;
32824;SDS011;51060;42.640;24.356;2024-01-06T04:17:09;45.47;;;31.07;;
32824;SDS011;51060;42.640;24.356;2024-01-06T04:19:35;49.63;;;33.47;;
32824;SDS011;51060;42.640;24.356;2024-01-06T04:22:00;51.70;;;33.47;;
32824;SDS011;51060;42.640;24.356;2024-01-06T04:24:26;59.20;;;41.67;;
32824;SDS011;51060;42.640;24.356;2024-01-06T04:26:52;53.37;;;37.47;;
32824;SDS011;51060;42.640;24.356;2024-01-06T04:29:17;52.80;;;35.60;;
32824;SDS011;51060;42.640;24.356;2024-01-06T04:31:43;55.50;;;37.67;;
32824;SDS011;51060;42.640;24.356;2024-01-06T04:34:08;57.10;;;38.07;;
32824;SDS011;51060;42.640;24.356;2024-01-06T04:36:34;58.37;;;38.27;;
32824;SDS011;51060;42.640;24.356;2024-01-06T04:39:00;54.87;;;35.97;;
32824;SDS011;51060;42.640;24.356;2024-01-06T04:41:25;58.40;;;38.40;;
32824;SDS011;51060;42.640;24.356;2024-01-06T04:43:51;54.07;;;36.03;;
32824;SDS011;51060;42.640;24.356;2024-01-06T04:46:17;54.43;;;36.23;;
32824;SDS011;51060;42.640;24.356;2024-01-06T04:48:42;54.07;;;34.50;;
32824;SDS011;51060;42.640;24.356;2024-01-06T04:51:09;50.67;;;32.40;;
32824;SDS011;51060;42.640;24.356;2024-01-06T04:53:35;44.77;;;29.83;;
32824;SDS011;51060;42.640;24.356;2024-01-06T04:56:01;45.63;;;30.47;;
32824;SDS011;51060;42.640;24.356;2024-01-06T04:58:27;27.30;;;19.77;;
32824;SDS011;51060;42.640;24.356;2024-01-06T05:00:53;30.60;;;19.57;;
32824;SDS011;51060;42.640;24.356;2024-01-06T05:03:19;26.77;;;18.50;;
32824;SDS011;51060;42.640;24.356;2024-01-06T05:05:44;30.87;;;22.47;;
32824;SDS011;51060;42.640;24.356;2024-01-06T05:08:10;30.33;;;20.70;;
32824;SDS011;51060;42.640;24.356;2024-01-06T05:10:36;34.03;;;24.90;;
32824;SDS011;51060;42.640;24.356;2024-01-06T05:13:01;40.43;;;29.17;;
32824;SDS011;51060;42.640;24.356;2024-01-06T05:15:27;48.33;;;30.70;;
32824;SDS011;51060;42.640;24.356;2024-01-06T05:17:53;45.90;;;29.13;;
32824;SDS011;51060;42.640;24.356;2024-01-06T05:20:18;94.10;;;46.33;;
32824;SDS011;51060;42.640;24.356;2024-01-06T05:22:44;83.67;;;46.13;;
32824;SDS011;51060;42.640;24.356;2024-01-06T05:25:09;71.37;;;40.97;;
32824;SDS011;51060;42.640;24.356;2024-01-06T05:27:35;100.00;;;52.57;;
32824;SDS011;51060;42.640;24.356;2024-01-06T05:30:01;65.63;;;39.13;;
32824;SDS011;51060;42.640;24.356;2024-01-06T05:32:27;55.43;;;35.37;;
32824;SDS011;51060;42.640;24.356;2024-01-06T05:34:52;50.50;;;31.37;;
32824;SDS011;51060;42.640;24.356;2024-01-06T05:37:18;54.37;;;34.90;;
32824;SDS011;51060;42.640;24.356;2024-01-06T05:39:44;58.40;;;37.77;;
32824;SDS011;51060;42.640;24.356;2024-01-06T05:42:09;60.27;;;39.03;;
32824;SDS011;51060;42.640;24.356;2024-01-06T05:44:40;63.93;;;40.57;;
32824;SDS011;51060;42.640;24.356;2024-01-06T05:47:05;91.97;;;56.20;;
32824;SDS011;51060;42.640;24.356;2024-01-06T05:49:31;84.47;;;52.63;;
32824;SDS011;51060;42.640;24.356;2024-01-06T05:51:57;78.03;;;51.80;;
32824;SDS011;51060;42.640;24.356;2024-01-06T05:54:23;82.07;;;52.77;;
32824;SDS011;51060;42.640;24.356;2024-01-06T05:56:48;89.13;;;55.47;;
32824;SDS011;51060;42.640;24.356;2024-01-06T05:59:14;89.10;;;56.00;;
32824;SDS011;51060;42.640;24.356;2024-01-06T06:01:39;87.70;;;57.53;;
32824;SDS011;51060;42.640;24.356;2024-01-06T06:04:05;86.03;;;56.20;;
32824;SDS011;51060;42.640;24.356;2024-01-06T06:06:31;89.50;;;57.57;;
32824;SDS011;51060;42.640;24.356;2024-01-06T06:08:56;75.63;;;49.30;;
32824;SDS011;51060;42.640;24.356;2024-01-06T06:11:22;55.73;;;38.13;;
32824;SDS011;51060;42.640;24.356;2024-01-06T06:13:47;75.60;;;48.03;;
32824;SDS011;51060;42.640;24.356;2024-01-06T06:16:14;84.87;;;55.87;;
32824;SDS011;51060;42.640;24.356;2024-01-06T06:18:39;96.87;;;61.20;;
32824;SDS011;51060;42.640;24.356;2024-01-06T06:21:08;105.27;;;64.90;;
32824;SDS011;51060;42.640;24.356;2024-01-06T06:23:34;122.80;;;78.30;;
32824;SDS011;51060;42.640;24.356;2024-01-06T06:26:04;111.67;;;71.53;;
32824;SDS011;51060;42.640;24.356;2024-01-06T06:28:31;88.30;;;60.50;;
32824;SDS011;51060;42.640;24.356;2024-01-06T06:30:56;79.73;;;56.57;;
32824;SDS011;51060;42.640;24.356;2024-01-06T06:33:22;102.80;;;64.47;;
32824;SDS011;51060;42.640;24.356;2024-01-06T06:35:47;128.17;;;82.17;;
32824;SDS011;51060;42.640;24.356;2024-01-06T06:38:13;164.10;;;104.10;;
32824;SDS011;51060;42.640;24.356;2024-01-06T06:40:39;172.03;;;107.37;;
32824;SDS011;51060;42.640;24.356;2024-01-06T06:43:04;169.80;;;102.83;;
32824;SDS011;51060;42.640;24.356;2024-01-06T06:45:30;159.77;;;100.43;;
32824;SDS011;51060;42.640;24.356;2024-01-06T06:47:55;177.37;;;111.03;;
32824;SDS011;51060;42.640;24.356;2024-01-06T06:50:21;163.60;;;108.40;;
32824;SDS011;51060;42.640;24.356;2024-01-06T06:52:46;151.23;;;98.23;;
32824;SDS011;51060;42.640;24.356;2024-01-06T06:55:12;139.90;;;91.30;;
32824;SDS011;51060;42.640;24.356;2024-01-06T06:57:39;132.00;;;88.70;;
32824;SDS011;51060;42.640;24.356;2024-01-06T07:00:05;132.57;;;88.67;;
32824;SDS011;51060;42.640;24.356;2024-01-06T07:02:32;123.47;;;82.90;;
32824;SDS011;51060;42.640;24.356;2024-01-06T07:04:59;122.30;;;80.07;;
32824;SDS011;51060;42.640;24.356;2024-01-06T07:07:24;126.77;;;81.20;;
32824;SDS011;51060;42.640;24.356;2024-01-06T07:09:50;123.90;;;78.07;;
32824;SDS011;51060;42.640;24.356;2024-01-06T07:12:16;121.33;;;79.70;;
32824;SDS011;51060;42.640;24.356;2024-01-06T07:14:42;121.67;;;78.93;;
32824;SDS011;51060;42.640;24.356;2024-01-06T07:17:08;141.50;;;90.37;;
32824;SDS011;51060;42.640;24.356;2024-01-06T07:19:34;138.93;;;86.90;;
32824;SDS011;51060;42.640;24.356;2024-01-06T07:22:00;143.73;;;90.87;;
32824;SDS011;51060;42.640;24.356;2024-01-06T07:24:25;103.07;;;67.77;;
32824;SDS011;51060;42.640;24.356;2024-01-06T07:26:52;99.77;;;66.40;;
32824;SDS011;51060;42.640;24.356;2024-01-06T07:29:18;110.20;;;72.43;;
32824;SDS011;51060;42.640;24.356;2024-01-06T07:31:44;91.63;;;61.87;;
32824;SDS011;51060;42.640;24.356;2024-01-06T07:34:10;72.63;;;50.57;;
32824;SDS011;51060;42.640;24.356;2024-01-06T07:36:35;70.00;;;49.53;;
32824;SDS011;51060;42.640;24.356;2024-01-06T07:39:01;64.13;;;45.30;;
32824;SDS011;51060;42.640;24.356;2024-01-06T07:41:28;71.77;;;50.27;;
32824;SDS011;51060;42.640;24.356;2024-01-06T07:43:55;70.73;;;50.13;;
32824;SDS011;51060;42.640;24.356;2024-01-06T07:46:21;77.37;;;56.20;;
32824;SDS011;51060;42.640;24.356;2024-01-06T07:48:47;78.27;;;55.13;;
32824;SDS011;51060;42.640;24.356;2024-01-06T07:51:12;57.47;;;42.10;;
32824;SDS011;51060;42.640;24.356;2024-01-06T07:53:38;49.93;;;36.20;;
32824;SDS011;51060;42.640;24.356;2024-01-06T07:56:04;45.60;;;34.57;;
32824;SDS011;51060;42.640;24.356;2024-01-06T07:58:30;48.87;;;35.93;;
32824;SDS011;51060;42.640;24.356;2024-01-06T08:00:56;49.13;;;37.80;;
32824;SDS011;51060;42.640;24.356;2024-01-06T08:03:21;49.63;;;38.13;;
32824;SDS011;51060;42.640;24.356;2024-01-06T08:05:47;54.30;;;41.10;;
32824;SDS011;51060;42.640;24.356;2024-01-06T08:08:13;58.50;;;43.60;;
32824;SDS011;51060;42.640;24.356;2024-01-06T08:10:41;61.97;;;43.03;;
32824;SDS011;51060;42.640;24.356;2024-01-06T08:13:07;62.67;;;45.63;;
32824;SDS011;51060;42.640;24.356;2024-01-06T08:15:33;70.83;;;50.20;;
32824;SDS011;51060;42.640;24.356;2024-01-06T08:17:59;79.13;;;54.87;;
32824;SDS011;51060;42.640;24.356;2024-01-06T08:20:24;91.97;;;62.53;;
32824;SDS011;51060;42.640;24.356;2024-01-06T08:22:50;101.53;;;68.30;;
32824;SDS011;51060;42.640;24.356;2024-01-06T08:25:16;298.97;;;148.40;;
32824;SDS011;51060;42.640;24.356;2024-01-06T08:27:45;257.50;;;134.87;;
32824;SDS011;51060;42.640;24.356;2024-01-06T08:30:11;168.30;;;105.83;;
32824;SDS011;51060;42.640;24.356;2024-01-06T08:32:37;181.27;;;114.67;;
32824;SDS011;51060;42.640;24.356;2024-01-06T08:35:03;181.97;;;119.90;;
32824;SDS011;51060;42.640;24.356;2024-01-06T08:37:29;128.93;;;86.07;;
32824;SDS011;51060;42.640;24.356;2024-01-06T08:39:55;163.43;;;109.30;;
32824;SDS011;51060;42.640;24.356;2024-01-06T08:42:21;230.00;;;148.70;;
32824;SDS011;51060;42.640;24.356;2024-01-06T08:44:47;214.17;;;141.43;;
32824;SDS011;51060;42.640;24.356;2024-01-06T08:47:13;217.20;;;144.87;;
32824;SDS011;51060;42.640;24.356;2024-01-06T08:49:38;244.03;;;157.73;;
32824;SDS011;51060;42.640;24.356;2024-01-06T08:52:04;253.40;;;162.83;;
32824;SDS011;51060;42.640;24.356;2024-01-06T08:54:31;253.73;;;160.93;;
32824;SDS011;51060;42.640;24.356;2024-01-06T08:56:57;223.33;;;138.57;;
32824;SDS011;51060;42.640;24.356;2024-01-06T08:59:22;226.70;;;142.27;;
32824;SDS011;51060;42.640;24.356;2024-01-06T09:01:48;219.50;;;139.27;;
32824;SDS011;51060;42.640;24.356;2024-01-06T09:04:13;221.77;;;141.90;;
32824;SDS011;51060;42.640;24.356;2024-01-06T09:06:40;180.10;;;113.30;;
32824;SDS011;51060;42.640;24.356;2024-01-06T09:09:07;178.53;;;110.47;;
32824;SDS011;51060;42.640;24.356;2024-01-06T09:11:33;173.43;;;110.03;;
32824;SDS011;51060;42.640;24.356;2024-01-06T09:13:59;147.57;;;94.73;;
32824;SDS011;51060;42.640;24.356;2024-01-06T09:16:26;143.30;;;88.47;;
32824;SDS011;51060;42.640;24.356;2024-01-06T09:18:52;107.27;;;66.57;;
32824;SDS011;51060;42.640;24.356;2024-01-06T09:21:17;91.03;;;59.20;;
32824;SDS011;51060;42.640;24.356;2024-01-06T09:23:43;76.33;;;48.33;;
32824;SDS011;51060;42.640;24.356;2024-01-06T09:26:09;59.13;;;38.03;;
32824;SDS011;51060;42.640;24.356;2024-01-06T09:28:35;57.77;;;40.40;;
32824;SDS011;51060;42.640;24.356;2024-01-06T09:31:01;62.57;;;41.77;;
32824;SDS011;51060;42.640;24.356;2024-01-06T09:33:26;66.83;;;46.87;;
32824;SDS011;51060;42.640;24.356;2024-01-06T09:35:52;73.93;;;51.03;;
32824;SDS011;51060;42.640;24.356;2024-01-06T09:38:18;65.00;;;44.80;;
32824;SDS011;51060;42.640;24.356;2024-01-06T09:40:44;59.20;;;41.30;;
32824;SDS011;51060;42.640;24.356;2024-01-06T09:43:11;62.90;;;42.53;;
32824;SDS011;51060;42.640;24.356;2024-01-06T09:45:37;63.57;;;42.73;;
32824;SDS011;51060;42.640;24.356;2024-01-06T09:48:10;63.70;;;42.27;;
32824;SDS011;51060;42.640;24.356;2024-01-06T09:50:41;67.57;;;45.23;;
32824;SDS011;51060;42.640;24.356;2024-01-06T09:53:11;65.23;;;44.67;;
32824;SDS011;51060;42.640;24.356;2024-01-06T09:55:37;69.70;;;47.00;;
32824;SDS011;51060;42.640;24.356;2024-01-06T09:58:03;69.37;;;45.93;;
32824;SDS011;51060;42.640;24.356;2024-01-06T10:00:30;83.97;;;57.67;;
32824;SDS011;51060;42.640;24.356;2024-01-06T10:02:55;93.63;;;62.10;;
32824;SDS011;51060;42.640;24.356;2024-01-06T10:05:21;77.77;;;54.80;;
32824;SDS011;51060;42.640;24.356;2024-01-06T10:07:47;80.57;;;56.00;;
32824;SDS011;51060;42.640;24.356;2024-01-06T10:10:14;84.17;;;59.13;;
32824;SDS011;51060;42.640;24.356;2024-01-06T10:12:40;80.50;;;55.40;;
32824;SDS011;51060;42.640;24.356;2024-01-06T10:15:07;81.23;;;56.70;;
32824;SDS011;51060;42.640;24.356;2024-01-06T10:17:37;90.07;;;60.17;;
32824;SDS011;51060;42.640;24.356;2024-01-06T10:20:06;95.73;;;62.37;;
32824;SDS011;51060;42.640;24.356;2024-01-06T10:22:38;123.97;;;80.53;;
32824;SDS011;51060;42.640;24.356;2024-01-06T10:25:06;139.30;;;93.63;;
32824;SDS011;51060;42.640;24.356;2024-01-06T10:27:39;145.30;;;100.40;;
32824;SDS011;51060;42.640;24.356;2024-01-06T10:30:06;148.30;;;99.90;;
32824;SDS011;51060;42.640;24.356;2024-01-06T10:32:32;146.60;;;100.20;;
32824;SDS011;51060;42.640;24.356;2024-01-06T10:34:59;123.57;;;87.63;;
32824;SDS011;51060;42.640;24.356;2024-01-06T10:37:26;128.33;;;88.80;;
32824;SDS011;51060;42.640;24.356;2024-01-06T10:40:09;124.93;;;87.77;;
32824;SDS011;51060;42.640;24.356;2024-01-06T10:42:35;137.23;;;93.10;;
32824;SDS011;51060;42.640;24.356;2024-01-06T10:45:02;123.90;;;85.93;;
32824;SDS011;51060;42.640;24.356;2024-01-06T10:47:28;121.10;;;85.93;;
32824;SDS011;51060;42.640;24.356;2024-01-06T10:49:58;128.47;;;88.30;;
32824;SDS011;51060;42.640;24.356;2024-01-06T10:52:24;146.93;;;104.40;;
32824;SDS011;51060;42.640;24.356;2024-01-06T10:54:50;171.33;;;114.43;;
32824;SDS011;51060;42.640;24.356;2024-01-06T10:57:17;174.77;;;116.43;;
32824;SDS011;51060;42.640;24.356;2024-01-06T10:59:43;154.57;;;107.13;;
32824;SDS011;51060;42.640;24.356;2024-01-06T11:02:10;147.80;;;105.17;;
32824;SDS011;51060;42.640;24.356;2024-01-06T11:04:37;166.70;;;116.37;;
32824;SDS011;51060;42.640;24.356;2024-01-06T11:07:02;175.10;;;122.07;;
32824;SDS011;51060;42.640;24.356;2024-01-06T11:09:29;215.10;;;145.40;;
32824;SDS011;51060;42.640;24.356;2024-01-06T11:11:59;193.43;;;135.87;;
32824;SDS011;51060;42.640;24.356;2024-01-06T11:14:26;253.97;;;169.07;;
32824;SDS011;51060;42.640;24.356;2024-01-06T11:16:58;259.30;;;170.03;;
32824;SDS011;51060;42.640;24.356;2024-01-06T11:22:23;290.50;;;195.33;;
32824;SDS011;51060;42.640;24.356;2024-01-06T11:25:05;328.20;;;209.33;;
32824;SDS011;51060;42.640;24.356;2024-01-06T11:27:33;321.57;;;206.17;;
32824;SDS011;51060;42.640;24.356;2024-01-06T11:30:00;353.23;;;221.77;;
32824;SDS011;51060;42.640;24.356;2024-01-06T11:32:30;343.40;;;225.83;;
32824;SDS011;51060;42.640;24.356;2024-01-06T11:35:13;350.73;;;226.37;;
32824;SDS011;51060;42.640;24.356;2024-01-06T11:40:08;341.90;;;223.60;;
32824;SDS011;51060;42.640;24.356;2024-01-06T11:42:36;333.00;;;221.27;;
32824;SDS011;51060;42.640;24.356;2024-01-06T11:45:04;313.93;;;212.43;;
32824;SDS011;51060;42.640;24.356;2024-01-06T11:47:31;298.33;;;198.97;;
32824;SDS011;51060;42.640;24.356;2024-01-06T11:49:59;323.60;;;216.70;;
32824;SDS011;51060;42.640;24.356;2024-01-06T11:52:26;317.63;;;212.67;;
32824;SDS011;51060;42.640;24.356;2024-01-06T11:54:52;304.40;;;206.73;;
32824;SDS011;51060;42.640;24.356;2024-01-06T11:57:19;309.00;;;208.43;;
32824;SDS011;51060;42.640;24.356;2024-01-06T11:59:45;261.37;;;173.63;;
32824;SDS011;51060;42.640;24.356;2024-01-06T12:02:11;266.53;;;176.37;;
32824;SDS011;51060;42.640;24.356;2024-01-06T12:04:40;254.30;;;171.23;;
32824;SDS011;51060;42.640;24.356;2024-01-06T12:07:08;256.50;;;168.97;;
32824;SDS011;51060;42.640;24.356;2024-01-06T12:09:34;247.03;;;164.83;;
32824;SDS011;51060;42.640;24.356;2024-01-06T12:12:03;239.67;;;157.30;;
32824;SDS011;51060;42.640;24.356;2024-01-06T12:14:30;248.10;;;159.77;;
32824;SDS011;51060;42.640;24.356;2024-01-06T12:17:00;249.73;;;162.80;;
32824;SDS011;51060;42.640;24.356;2024-01-06T12:19:31;238.13;;;158.37;;
32824;SDS011;51060;42.640;24.356;2024-01-06T12:21:58;213.57;;;135.00;;
32824;SDS011;51060;42.640;24.356;2024-01-06T12:24:23;176.60;;;110.83;;
32824;SDS011;51060;42.640;24.356;2024-01-06T12:26:50;49.40;;;29.93;;
32824;SDS011;51060;42.640;24.356;2024-01-06T12:29:17;23.43;;;12.97;;
32824;SDS011;51060;42.640;24.356;2024-01-06T12:31:43;37.90;;;24.27;;
32824;SDS011;51060;42.640;24.356;2024-01-06T12:34:09;22.87;;;13.17;;
32824;SDS011;51060;42.640;24.356;2024-01-06T12:36:37;13.37;;;8.43;;
32824;SDS011;51060;42.640;24.356;2024-01-06T12:39:04;12.90;;;7.30;;
32824;SDS011;51060;42.640;24.356;2024-01-06T12:41:30;20.43;;;11.63;;
32824;SDS011;51060;42.640;24.356;2024-01-06T12:43:59;6.23;;;4.40;;
32824;SDS011;51060;42.640;24.356;2024-01-06T12:46:26;9.37;;;6.77;;
32824;SDS011;51060;42.640;24.356;2024-01-06T12:48:52;35.67;;;18.97;;
32824;SDS011;51060;42.640;24.356;2024-01-06T12:51:17;40.80;;;21.57;;
32824;SDS011;51060;42.640;24.356;2024-01-06T12:53:43;11.47;;;7.50;;
32824;SDS011;51060;42.640;24.356;2024-01-06T12:56:09;6.40;;;4.87;;
32824;SDS011;51060;42.640;24.356;2024-01-06T12:58:35;6.63;;;4.60;;
32824;SDS011;51060;42.640;24.356;2024-01-06T13:01:00;36.90;;;19.57;;
32824;SDS011;51060;42.640;24.356;2024-01-06T13:03:27;44.00;;;23.97;;
32824;SDS011;51060;42.640;24.356;2024-01-06T13:05:54;26.73;;;17.07;;
32824;SDS011;51060;42.640;24.356;2024-01-06T13:08:19;35.07;;;20.67;;
32824;SDS011;51060;42.640;24.356;2024-01-06T13:10:45;37.97;;;22.70;;
32824;SDS011;51060;42.640;24.356;2024-01-06T13:13:10;32.63;;;21.77;;
32824;SDS011;51060;42.640;24.356;2024-01-06T13:15:36;40.17;;;23.47;;
32824;SDS011;51060;42.640;24.356;2024-01-06T13:18:02;105.90;;;67.70;;
32824;SDS011;51060;42.640;24.356;2024-01-06T13:20:27;73.57;;;46.20;;
32824;SDS011;51060;42.640;24.356;2024-01-06T13:22:53;125.97;;;75.10;;
32824;SDS011;51060;42.640;24.356;2024-01-06T13:25:18;75.97;;;50.23;;
32824;SDS011;51060;42.640;24.356;2024-01-06T13:27:45;62.83;;;43.23;;
32824;SDS011;51060;42.640;24.356;2024-01-06T13:30:10;57.17;;;42.07;;
32824;SDS011;51060;42.640;24.356;2024-01-06T13:32:38;45.70;;;33.17;;
32824;SDS011;51060;42.640;24.356;2024-01-06T13:35:04;39.70;;;30.47;;
32824;SDS011;51060;42.640;24.356;2024-01-06T13:37:31;35.93;;;27.37;;
32824;SDS011;51060;42.640;24.356;2024-01-06T13:39:57;35.43;;;27.33;;
32824;SDS011;51060;42.640;24.356;2024-01-06T13:42:22;31.93;;;25.43;;
32824;SDS011;51060;42.640;24.356;2024-01-06T13:44:48;28.17;;;22.30;;
32824;SDS011;51060;42.640;24.356;2024-01-06T13:47:14;24.40;;;19.33;;
32824;SDS011;51060;42.640;24.356;2024-01-06T13:49:40;19.67;;;15.73;;
32824;SDS011;51060;42.640;24.356;2024-01-06T13:52:06;44.20;;;34.93;;
32824;SDS011;51060;42.640;24.356;2024-01-06T13:54:34;18.83;;;15.57;;
32824;SDS011;51060;42.640;24.356;2024-01-06T13:57:00;17.50;;;14.90;;
32824;SDS011;51060;42.640;24.356;2024-01-06T13:59:26;20.50;;;15.87;;
32824;SDS011;51060;42.640;24.356;2024-01-06T14:01:52;22.60;;;19.30;;
32824;SDS011;51060;42.640;24.356;2024-01-06T14:04:18;26.67;;;22.37;;